createdAt,value
2023-03-05T00:00:03.708Z,2.69
2023-03-05T00:01:03.620Z,2.69
2023-03-05T00:02:05.288Z,2.69
2023-03-05T00:03:03.704Z,2.69
2023-03-05T00:04:03.621Z,2.69
2023-03-05T00:05:03.768Z,2.69
2023-03-05T00:06:03.859Z,2.69
2023-03-05T00:07:03.932Z,2.62
2023-03-05T00:08:03.924Z,2.62
2023-03-05T00:09:03.944Z,2.62
2023-03-05T00:10:03.946Z,2.62
2023-03-05T00:11:03.850Z,2.62
2023-03-05T00:12:03.922Z,2.62
2023-03-05T00:13:04.125Z,2.62
2023-03-05T00:14:04.043Z,2.62
2023-03-05T00:15:03.927Z,2.62
2023-03-05T00:16:04.171Z,2.62
2023-03-05T00:17:04.011Z,2.62
2023-03-05T00:18:04.180Z,2.62
2023-03-05T00:19:04.245Z,2.62
2023-03-05T00:20:04.253Z,2.62
2023-03-05T00:21:04.246Z,2.62
2023-03-05T00:22:04.344Z,2.62
2023-03-05T00:23:04.318Z,2.62
2023-03-05T00:24:04.272Z,2.62
2023-03-05T00:25:04.250Z,2.62
2023-03-05T00:26:04.251Z,2.62
2023-03-05T00:27:04.329Z,2.62
2023-03-05T00:28:04.336Z,2.56
2023-03-05T00:29:04.456Z,2.56
2023-03-05T00:30:04.403Z,2.56
2023-03-05T00:31:04.493Z,2.56
2023-03-05T00:32:04.459Z,2.56
2023-03-05T00:33:04.405Z,2.56
2023-03-05T00:34:03.534Z,2.56
2023-03-05T00:35:03.545Z,2.56
2023-03-05T00:36:03.670Z,2.56
2023-03-05T00:37:03.609Z,2.56
2023-03-05T00:38:03.615Z,2.56
2023-03-05T00:39:03.616Z,2.56
2023-03-05T00:40:03.764Z,2.56
2023-03-05T00:41:03.789Z,2.56
2023-03-05T00:42:03.802Z,2.56
2023-03-05T00:43:03.936Z,2.56
2023-03-05T00:44:03.929Z,2.56
2023-03-05T00:45:03.936Z,2.62
2023-03-05T00:46:03.988Z,2.62
2023-03-05T00:47:04.002Z,2.56
2023-03-05T00:48:03.929Z,2.56
2023-03-05T00:49:04.035Z,2.56
2023-03-05T00:50:04.010Z,2.56
2023-03-05T00:51:04.095Z,2.62
2023-03-05T00:52:04.168Z,2.56
2023-03-05T00:53:04.173Z,2.56
2023-03-05T00:54:04.175Z,2.62
2023-03-05T00:55:04.253Z,2.56
2023-03-05T00:56:04.260Z,2.62
2023-03-05T00:57:04.253Z,2.62
2023-03-05T00:58:04.423Z,2.62
2023-03-05T00:59:04.426Z,2.62
2023-03-05T01:00:04.439Z,2.62
2023-03-05T01:01:04.427Z,2.56
2023-03-05T01:02:04.439Z,2.56
2023-03-05T01:03:03.526Z,2.62
2023-03-05T01:04:03.700Z,2.62
2023-03-05T01:05:03.671Z,2.56
2023-03-05T01:06:03.683Z,2.56
2023-03-05T01:07:03.603Z,2.56
2023-03-05T01:08:03.605Z,2.56
2023-03-05T01:09:03.600Z,2.56
2023-03-05T01:10:04.171Z,2.56
2023-03-05T01:11:03.852Z,2.56
2023-03-05T01:12:03.758Z,2.56
2023-03-05T01:13:03.756Z,2.56
2023-03-05T01:14:03.754Z,2.56
2023-03-05T01:15:03.761Z,2.56
2023-03-05T01:16:03.957Z,2.56
2023-03-05T01:17:03.916Z,2.50
2023-03-05T01:18:04.091Z,2.56
2023-03-05T01:19:03.986Z,2.56
2023-03-05T01:20:04.076Z,2.56
2023-03-05T01:21:04.075Z,2.56
2023-03-05T01:22:03.990Z,2.50
2023-03-05T01:23:03.909Z,2.50
2023-03-05T01:24:03.997Z,2.50
2023-03-05T01:25:03.902Z,2.44
2023-03-05T01:26:04.076Z,2.44
2023-03-05T01:27:03.984Z,2.44
2023-03-05T01:28:04.068Z,2.44
2023-03-05T01:29:04.069Z,2.44
2023-03-05T01:30:04.058Z,2.44
2023-03-05T01:31:04.234Z,2.44
2023-03-05T01:32:04.153Z,2.38
2023-03-05T01:33:04.230Z,2.44
2023-03-05T01:34:04.141Z,2.38
2023-03-05T01:35:04.217Z,2.38
2023-03-05T01:36:04.381Z,2.38
2023-03-05T01:37:04.226Z,2.38
2023-03-05T01:38:04.160Z,2.38
2023-03-05T01:39:04.232Z,2.31
2023-03-05T01:40:04.269Z,2.31
2023-03-05T01:41:04.325Z,2.31
2023-03-05T01:42:04.411Z,2.31
2023-03-05T01:43:04.345Z,2.31
2023-03-05T01:44:04.232Z,2.31
2023-03-05T01:45:04.188Z,2.31
2023-03-05T01:46:04.158Z,2.31
2023-03-05T01:47:04.200Z,2.25
2023-03-05T01:48:04.215Z,2.25
2023-03-05T01:49:04.227Z,2.25
2023-03-05T01:50:04.392Z,2.25
2023-03-05T01:51:04.312Z,2.25
2023-03-05T01:52:04.303Z,2.25
2023-03-05T01:53:04.394Z,2.25
2023-03-05T01:54:04.322Z,2.25
2023-03-05T01:55:04.305Z,2.25
2023-03-05T01:56:04.401Z,2.25
2023-03-05T01:57:04.384Z,2.25
2023-03-05T01:58:04.473Z,2.25
2023-03-05T01:59:03.732Z,2.19
2023-03-05T02:00:03.577Z,2.19
2023-03-05T02:01:03.624Z,2.19
2023-03-05T02:02:03.580Z,2.19
2023-03-05T02:03:03.582Z,2.19
2023-03-05T02:04:03.674Z,2.19
2023-03-05T02:05:03.686Z,2.19
2023-03-05T02:06:03.656Z,2.19
2023-03-05T02:07:03.768Z,2.12
2023-03-05T02:08:03.678Z,2.12
2023-03-05T02:09:03.663Z,2.12
2023-03-05T02:10:03.679Z,2.12
2023-03-05T02:11:03.573Z,2.12
2023-03-05T02:12:03.746Z,2.12
2023-03-05T02:13:03.574Z,2.12
2023-03-05T02:14:03.746Z,2.12
2023-03-05T02:15:03.680Z,2.12
2023-03-05T02:16:03.899Z,2.12
2023-03-05T02:17:03.904Z,2.12
2023-03-05T02:18:03.815Z,2.06
2023-03-05T02:19:03.785Z,2.06
2023-03-05T02:20:03.753Z,2.06
2023-03-05T02:21:03.746Z,2.06
2023-03-05T02:22:03.844Z,2.06
2023-03-05T02:23:03.838Z,2.06
2023-03-05T02:24:03.743Z,2.00
2023-03-05T02:25:03.840Z,2.00
2023-03-05T02:26:03.823Z,2.06
2023-03-05T02:27:03.978Z,2.00
2023-03-05T02:28:03.904Z,2.00
2023-03-05T02:29:03.934Z,2.00
2023-03-05T02:30:03.897Z,2.00
2023-03-05T02:31:03.898Z,2.00
2023-03-05T02:32:04.046Z,2.00
2023-03-05T02:33:03.814Z,2.00
2023-03-05T02:34:03.907Z,2.00
2023-03-05T02:35:04.383Z,2.00
2023-03-05T02:36:04.388Z,2.00
2023-03-05T02:37:04.381Z,1.94
2023-03-05T02:38:04.397Z,1.94
2023-03-05T02:39:04.391Z,1.94
2023-03-05T02:40:04.376Z,1.94
2023-03-05T02:41:03.500Z,1.94
2023-03-05T02:42:03.529Z,1.94
2023-03-05T02:43:03.508Z,1.94
2023-03-05T02:44:03.583Z,1.94
2023-03-05T02:45:03.585Z,1.94
2023-03-05T02:46:03.645Z,1.94
2023-03-05T02:47:03.680Z,1.94
2023-03-05T02:48:03.666Z,1.94
2023-03-05T02:49:03.660Z,1.94
2023-03-05T02:50:03.508Z,1.94
2023-03-05T02:51:03.511Z,1.94
2023-03-05T02:52:03.500Z,1.94
2023-03-05T02:53:03.442Z,1.88
2023-03-05T02:54:03.502Z,1.94
2023-03-05T02:55:03.508Z,1.88
2023-03-05T02:56:03.499Z,1.88
2023-03-05T02:57:03.577Z,1.88
2023-03-05T02:58:03.618Z,1.88
2023-03-05T02:59:03.582Z,1.88
2023-03-05T03:00:03.750Z,1.88
2023-03-05T03:01:03.767Z,1.88
2023-03-05T03:02:03.753Z,1.88
2023-03-05T03:03:03.945Z,1.88
2023-03-05T03:04:03.744Z,1.88
2023-03-05T03:05:03.740Z,1.88
2023-03-05T03:06:03.832Z,1.88
2023-03-05T03:07:03.756Z,1.88
2023-03-05T03:08:03.922Z,1.88
2023-03-05T03:09:03.818Z,1.88
2023-03-05T03:10:03.911Z,1.88
2023-03-05T03:11:03.980Z,1.88
2023-03-05T03:12:04.001Z,1.88
2023-03-05T03:13:04.062Z,1.81
2023-03-05T03:14:03.978Z,1.81
2023-03-05T03:15:03.990Z,1.81
2023-03-05T03:16:04.160Z,1.81
2023-03-05T03:17:04.350Z,1.81
2023-03-05T03:18:04.222Z,1.81
2023-03-05T03:19:04.306Z,1.81
2023-03-05T03:20:04.394Z,1.81
2023-03-05T03:21:04.312Z,1.81
2023-03-05T03:22:04.308Z,1.81
2023-03-05T03:23:04.219Z,1.81
2023-03-05T03:24:04.225Z,1.81
2023-03-05T03:25:04.385Z,1.81
2023-03-05T03:26:04.308Z,1.81
2023-03-05T03:27:04.398Z,1.81
2023-03-05T03:28:03.503Z,1.81
2023-03-05T03:29:03.509Z,1.81
2023-03-05T03:30:03.512Z,1.81
2023-03-05T03:31:03.552Z,1.81
2023-03-05T03:32:03.566Z,1.81
2023-03-05T03:33:03.597Z,1.81
2023-03-05T03:34:03.601Z,1.81
2023-03-05T03:35:03.519Z,1.81
2023-03-05T03:36:03.505Z,1.81
2023-03-05T03:37:03.604Z,1.81
2023-03-05T03:38:03.597Z,1.81
2023-03-05T03:39:03.600Z,1.75
2023-03-05T03:40:03.528Z,1.81
2023-03-05T03:41:03.509Z,1.81
2023-03-05T03:42:03.584Z,1.81
2023-03-05T03:43:03.511Z,1.81
2023-03-05T03:44:03.518Z,1.81
2023-03-05T03:45:03.516Z,1.81
2023-03-05T03:46:03.622Z,1.81
2023-03-05T03:47:03.683Z,1.81
2023-03-05T03:48:03.679Z,1.81
2023-03-05T03:49:03.751Z,1.81
2023-03-05T03:50:03.755Z,1.75
2023-03-05T03:51:03.746Z,1.75
2023-03-05T03:52:03.843Z,1.75
2023-03-05T03:53:03.855Z,1.75
2023-03-05T03:54:03.843Z,1.75
2023-03-05T03:55:03.844Z,1.75
2023-03-05T03:56:03.910Z,1.75
2023-03-05T03:57:03.995Z,1.81
2023-03-05T03:58:03.943Z,1.81
2023-03-05T03:59:04.001Z,1.75
2023-03-05T04:00:03.913Z,1.75
2023-03-05T04:01:03.997Z,1.75
2023-03-05T04:02:04.068Z,1.75
2023-03-05T04:03:04.091Z,1.75
2023-03-05T04:04:04.154Z,1.75
2023-03-05T04:05:04.235Z,1.75
2023-03-05T04:06:04.160Z,1.75
2023-03-05T04:07:04.151Z,1.75
2023-03-05T04:08:04.344Z,1.75
2023-03-05T04:09:04.245Z,1.75
2023-03-05T04:10:04.227Z,1.75
2023-03-05T04:11:04.242Z,1.75
2023-03-05T04:12:04.162Z,1.75
2023-03-05T04:13:04.236Z,1.75
2023-03-05T04:14:04.144Z,1.75
2023-03-05T04:15:04.313Z,1.75
2023-03-05T04:16:04.310Z,1.75
2023-03-05T04:17:04.320Z,1.75
2023-03-05T04:18:04.341Z,1.75
2023-03-05T04:19:04.413Z,1.75
2023-03-05T04:20:04.309Z,1.75
2023-03-05T04:21:04.323Z,1.75
2023-03-05T04:22:04.322Z,1.75
2023-03-05T04:23:04.340Z,1.75
2023-03-05T04:24:04.310Z,1.75
2023-03-05T04:25:04.314Z,1.75
2023-03-05T04:26:04.399Z,1.75
2023-03-05T04:27:04.405Z,1.75
2023-03-05T04:28:04.384Z,1.75
2023-03-05T04:29:03.518Z,1.75
2023-03-05T04:30:03.511Z,1.75
2023-03-05T04:31:03.637Z,1.75
2023-03-05T04:32:03.544Z,1.81
2023-03-05T04:33:03.599Z,1.75
2023-03-05T04:34:03.612Z,1.75
2023-03-05T04:35:03.675Z,1.75
2023-03-05T04:36:03.754Z,1.75
2023-03-05T04:37:03.604Z,1.75
2023-03-05T04:38:03.662Z,1.75
2023-03-05T04:39:03.594Z,1.75
2023-03-05T04:40:03.682Z,1.75
2023-03-05T04:41:03.598Z,1.75
2023-03-05T04:42:03.589Z,1.75
2023-03-05T04:43:03.502Z,1.75
2023-03-05T04:44:03.656Z,1.75
2023-03-05T04:45:03.592Z,1.75
2023-03-05T04:46:03.570Z,1.75
2023-03-05T04:47:03.667Z,1.75
2023-03-05T04:48:03.672Z,1.75
2023-03-05T04:49:03.682Z,1.75
2023-03-05T04:50:03.671Z,1.75
2023-03-05T04:51:03.667Z,1.75
2023-03-05T04:52:03.662Z,1.75
2023-03-05T04:53:03.778Z,1.75
2023-03-05T04:54:03.836Z,1.75
2023-03-05T04:55:03.831Z,1.75
2023-03-05T04:56:03.909Z,1.75
2023-03-05T04:57:03.907Z,1.75
2023-03-05T04:58:03.988Z,1.75
2023-03-05T04:59:04.065Z,1.75
2023-03-05T05:00:04.064Z,1.75
2023-03-05T05:01:04.142Z,1.81
2023-03-05T05:02:04.175Z,1.81
2023-03-05T05:03:04.136Z,1.81
2023-03-05T05:04:04.144Z,1.81
2023-03-05T05:05:04.154Z,1.75
2023-03-05T05:06:04.152Z,1.75
2023-03-05T05:07:04.143Z,1.75
2023-03-05T05:08:04.144Z,1.75
2023-03-05T05:09:04.315Z,1.75
2023-03-05T05:10:04.369Z,1.75
2023-03-05T05:11:04.298Z,1.75
2023-03-05T05:12:04.402Z,1.75
2023-03-05T05:13:04.308Z,1.75
2023-03-05T05:14:04.323Z,1.75
2023-03-05T05:15:04.296Z,1.75
2023-03-05T05:16:04.457Z,1.75
2023-03-05T05:17:04.409Z,1.75
2023-03-05T05:18:04.301Z,1.75
2023-03-05T05:19:04.259Z,1.75
2023-03-05T05:20:04.144Z,1.69
2023-03-05T05:21:04.145Z,1.69
2023-03-05T05:22:04.253Z,1.69
2023-03-05T05:23:04.244Z,1.69
2023-03-05T05:24:04.143Z,1.69
2023-03-05T05:25:04.491Z,1.69
2023-03-05T05:26:03.516Z,1.69
2023-03-05T05:27:03.510Z,1.69
2023-03-05T05:28:03.507Z,1.69
2023-03-05T05:29:03.680Z,1.69
2023-03-05T05:30:03.678Z,1.69
2023-03-05T05:31:03.611Z,1.69
2023-03-05T05:32:03.559Z,1.69
2023-03-05T05:33:03.589Z,1.69
2023-03-05T05:34:03.749Z,1.69
2023-03-05T05:35:03.666Z,1.69
2023-03-05T05:36:03.779Z,1.69
2023-03-05T05:37:03.672Z,1.69
2023-03-05T05:38:03.595Z,1.69
2023-03-05T05:39:03.761Z,1.69
2023-03-05T05:40:03.666Z,1.69
2023-03-05T05:41:03.779Z,1.69
2023-03-05T05:42:03.833Z,1.69
2023-03-05T05:43:03.831Z,1.69
2023-03-05T05:44:03.916Z,1.69
2023-03-05T05:45:03.847Z,1.69
2023-03-05T05:46:04.060Z,1.69
2023-03-05T05:47:03.908Z,1.69
2023-03-05T05:48:03.829Z,1.69
2023-03-05T05:49:03.907Z,1.69
2023-03-05T05:50:03.991Z,1.69
2023-03-05T05:51:04.080Z,1.69
2023-03-05T05:52:04.185Z,1.62
2023-03-05T05:53:04.149Z,1.62
2023-03-05T05:54:04.324Z,1.69
2023-03-05T05:55:04.200Z,1.69
2023-03-05T05:56:04.323Z,1.69
2023-03-05T05:57:04.235Z,1.62
2023-03-05T05:58:04.234Z,1.62
2023-03-05T05:59:04.317Z,1.62
2023-03-05T06:00:04.236Z,1.62
2023-03-05T06:01:04.474Z,1.62
2023-03-05T06:02:04.457Z,1.62
2023-03-05T06:03:04.519Z,1.62
2023-03-05T06:04:04.478Z,1.62
2023-03-05T06:05:04.466Z,1.62
2023-03-05T06:06:03.512Z,1.62
2023-03-05T06:07:03.595Z,1.62
2023-03-05T06:08:03.600Z,1.62
2023-03-05T06:09:03.517Z,1.62
2023-03-05T06:10:03.510Z,1.62
2023-03-05T06:11:03.596Z,1.62
2023-03-05T06:12:03.760Z,1.69
2023-03-05T06:13:03.596Z,1.81
2023-03-05T06:14:03.669Z,1.88
2023-03-05T06:15:03.832Z,2.12
2023-03-05T06:16:04.121Z,2.12
2023-03-05T06:17:04.011Z,2.06
2023-03-05T06:18:03.921Z,2.00
2023-03-05T06:19:04.384Z,2.00
2023-03-05T06:20:03.837Z,2.06
2023-03-05T06:21:03.832Z,2.06
2023-03-05T06:22:03.991Z,2.00
2023-03-05T06:23:03.854Z,1.94
2023-03-05T06:24:04.015Z,1.94
2023-03-05T06:25:03.931Z,2.00
2023-03-05T06:26:03.847Z,2.06
2023-03-05T06:27:03.751Z,2.06
2023-03-05T06:28:03.758Z,2.06
2023-03-05T06:29:03.674Z,1.94
2023-03-05T06:30:03.829Z,2.00
2023-03-05T06:31:03.855Z,2.00
2023-03-05T06:32:04.104Z,2.12
2023-03-05T06:33:03.839Z,2.06
2023-03-05T06:34:03.878Z,2.19
2023-03-05T06:35:03.828Z,2.19
2023-03-05T06:36:03.999Z,2.19
2023-03-05T06:37:03.833Z,2.19
2023-03-05T06:38:03.841Z,2.25
2023-03-05T06:39:03.918Z,2.19
2023-03-05T06:40:04.004Z,2.19
2023-03-05T06:41:04.075Z,2.12
2023-03-05T06:42:03.997Z,2.12
2023-03-05T06:43:04.074Z,2.12
2023-03-05T06:44:04.072Z,2.12
2023-03-05T06:45:04.004Z,2.06
2023-03-05T06:46:04.239Z,2.06
2023-03-05T06:47:03.931Z,2.25
2023-03-05T06:48:04.076Z,2.44
2023-03-05T06:49:03.931Z,2.38
2023-03-05T06:50:03.908Z,2.50
2023-03-05T06:51:03.942Z,2.44
2023-03-05T06:52:03.936Z,2.38
2023-03-05T06:53:03.912Z,2.38
2023-03-05T06:54:03.996Z,2.38
2023-03-05T06:55:03.989Z,2.31
2023-03-05T06:56:04.073Z,2.31
2023-03-05T06:57:04.470Z,2.25
2023-03-05T06:58:03.433Z,2.25
2023-03-05T06:59:03.528Z,2.25
2023-03-05T07:00:03.660Z,2.25
2023-03-05T07:01:03.670Z,2.25
2023-03-05T07:02:03.852Z,2.25
2023-03-05T07:03:03.679Z,2.19
2023-03-05T07:04:03.838Z,2.19
2023-03-05T07:05:03.674Z,2.19
2023-03-05T07:06:03.761Z,2.19
2023-03-05T07:07:03.942Z,2.25
2023-03-05T07:08:03.907Z,2.44
2023-03-05T07:09:03.910Z,2.56
2023-03-05T07:10:03.902Z,2.50
2023-03-05T07:11:03.996Z,2.50
2023-03-05T07:12:03.989Z,2.62
2023-03-05T07:13:04.066Z,2.62
2023-03-05T07:14:04.235Z,2.56
2023-03-05T07:15:04.387Z,2.56
2023-03-05T07:16:04.392Z,2.69
2023-03-05T07:17:04.481Z,2.81
2023-03-05T07:18:04.401Z,2.81
2023-03-05T07:19:03.611Z,2.81
2023-03-05T07:20:03.509Z,2.75
2023-03-05T07:21:03.589Z,2.81
2023-03-05T07:22:03.586Z,2.81
2023-03-05T07:23:03.765Z,3.25
2023-03-05T07:24:03.678Z,3.44
2023-03-05T07:25:03.920Z,3.31
2023-03-05T07:26:03.841Z,3.19
2023-03-05T07:27:03.842Z,3.12
2023-03-05T07:28:03.749Z,3.06
2023-03-05T07:29:03.766Z,3.00
2023-03-05T07:30:03.760Z,3.00
2023-03-05T07:31:03.867Z,3.06
2023-03-05T07:32:03.817Z,2.94
2023-03-05T07:33:03.750Z,2.88
2023-03-05T07:34:03.781Z,2.88
2023-03-05T07:35:03.750Z,3.00
2023-03-05T07:36:03.751Z,2.94
2023-03-05T07:37:03.753Z,2.88
2023-03-05T07:38:03.832Z,2.94
2023-03-05T07:39:04.006Z,3.06
2023-03-05T07:40:03.917Z,3.00
2023-03-05T07:41:03.925Z,2.94
2023-03-05T07:42:03.948Z,2.94
2023-03-05T07:43:03.908Z,2.88
2023-03-05T07:44:04.088Z,2.88
2023-03-05T07:45:04.156Z,2.81
2023-03-05T07:46:04.219Z,2.81
2023-03-05T07:47:04.075Z,2.81
2023-03-05T07:48:04.162Z,2.81
2023-03-05T07:49:04.075Z,2.81
2023-03-05T07:50:04.083Z,2.81
2023-03-05T07:51:04.082Z,2.75
2023-03-05T07:52:04.078Z,2.75
2023-03-05T07:53:04.239Z,2.75
2023-03-05T07:54:04.315Z,2.75
2023-03-05T07:55:04.250Z,2.75
2023-03-05T07:56:04.235Z,2.69
2023-03-05T07:57:04.389Z,2.75
2023-03-05T07:58:03.541Z,2.75
2023-03-05T07:59:03.608Z,2.75
2023-03-05T08:00:03.519Z,2.75
2023-03-05T08:01:03.617Z,2.75
2023-03-05T08:02:03.765Z,2.75
2023-03-05T08:03:03.832Z,2.69
2023-03-05T08:04:03.908Z,2.69
2023-03-05T08:05:03.830Z,2.69
2023-03-05T08:06:03.919Z,2.69
2023-03-05T08:07:03.992Z,2.69
2023-03-05T08:08:04.076Z,2.69
2023-03-05T08:09:04.338Z,2.69
2023-03-05T08:10:04.188Z,2.69
2023-03-05T08:11:04.423Z,2.69
2023-03-05T08:12:09.272Z,2.69
2023-03-05T08:13:04.266Z,2.69
2023-03-05T08:14:05.042Z,2.69
2023-03-05T08:15:04.388Z,2.75
2023-03-05T08:16:04.529Z,2.75
2023-03-05T08:17:04.686Z,2.75
2023-03-05T08:18:04.931Z,2.75
2023-03-05T08:19:04.772Z,2.75
2023-03-05T08:20:09.301Z,2.75
2023-03-05T08:21:09.227Z,2.75
2023-03-05T08:22:03.790Z,2.75
2023-03-05T08:23:03.698Z,2.75
2023-03-05T08:24:03.597Z,2.81
2023-03-05T08:25:03.683Z,2.81
2023-03-05T08:26:03.696Z,2.81
2023-03-05T08:27:03.585Z,2.81
2023-03-05T08:28:03.615Z,2.81
2023-03-05T08:29:03.596Z,2.81
2023-03-05T08:30:03.608Z,2.81
2023-03-05T08:31:03.694Z,2.81
2023-03-05T08:32:03.652Z,2.88
2023-03-05T08:33:03.591Z,2.88
2023-03-05T08:34:03.584Z,2.94
2023-03-05T08:35:03.616Z,2.94
2023-03-05T08:36:03.624Z,2.94
2023-03-05T08:37:03.671Z,3.00
2023-03-05T08:38:03.678Z,3.06
2023-03-05T08:39:03.797Z,3.00
2023-03-05T08:40:03.753Z,3.06
2023-03-05T08:41:03.669Z,3.06
2023-03-05T08:42:03.689Z,3.06
2023-03-05T08:43:03.595Z,3.06
2023-03-05T08:44:03.675Z,3.12
2023-03-05T08:45:03.836Z,3.12
2023-03-05T08:46:03.850Z,3.12
2023-03-05T08:47:03.840Z,3.12
2023-03-05T08:48:03.914Z,3.19
2023-03-05T08:49:03.836Z,3.19
2023-03-05T08:50:03.920Z,3.19
2023-03-05T08:51:03.835Z,3.25
2023-03-05T08:52:03.843Z,3.25
2023-03-05T08:53:03.829Z,3.25
2023-03-05T08:54:03.912Z,3.25
2023-03-05T08:55:03.916Z,3.31
2023-03-05T08:56:03.932Z,3.31
2023-03-05T08:57:03.998Z,3.38
2023-03-05T08:58:04.084Z,3.38
2023-03-05T08:59:04.180Z,3.38
2023-03-05T09:00:04.167Z,3.38
2023-03-05T09:01:04.169Z,3.44
2023-03-05T09:02:04.266Z,3.50
2023-03-05T09:03:04.354Z,3.50
2023-03-05T09:04:04.401Z,3.50
2023-03-05T09:05:03.517Z,3.56
2023-03-05T09:06:03.605Z,3.56
2023-03-05T09:07:03.519Z,3.56
2023-03-05T09:08:03.507Z,3.62
2023-03-05T09:09:03.592Z,3.69
2023-03-05T09:10:03.697Z,3.69
2023-03-05T09:11:03.689Z,3.69
2023-03-05T09:12:03.796Z,3.75
2023-03-05T09:13:03.997Z,3.75
2023-03-05T09:14:04.001Z,3.75
2023-03-05T09:15:04.154Z,3.75
2023-03-05T09:16:04.237Z,3.75
2023-03-05T09:17:04.330Z,3.75
2023-03-05T09:18:04.322Z,3.81
2023-03-05T09:19:04.479Z,3.81
2023-03-05T09:20:03.513Z,3.81
2023-03-05T09:21:04.470Z,3.81
2023-03-05T09:22:04.475Z,3.81
2023-03-05T09:23:04.469Z,3.81
2023-03-05T09:24:04.402Z,3.81
2023-03-05T09:25:03.519Z,3.81
2023-03-05T09:26:03.526Z,3.81
2023-03-05T09:27:03.506Z,3.81
2023-03-05T09:28:03.679Z,3.81
2023-03-05T09:29:03.607Z,3.81
2023-03-05T09:30:04.015Z,3.81
2023-03-05T09:31:03.913Z,3.81
2023-03-05T09:32:04.040Z,3.81
2023-03-05T09:33:04.078Z,3.81
2023-03-05T09:34:04.158Z,3.88
2023-03-05T09:35:04.161Z,3.88
2023-03-05T09:36:04.334Z,3.81
2023-03-05T09:37:04.328Z,3.88
2023-03-05T09:38:04.320Z,3.88
2023-03-05T09:39:04.302Z,3.88
2023-03-05T09:40:04.402Z,3.88
2023-03-05T09:41:04.391Z,3.88
2023-03-05T09:42:04.610Z,3.88
2023-03-05T09:43:04.480Z,3.88
2023-03-05T09:44:04.474Z,3.88
2023-03-05T09:45:03.510Z,3.88
2023-03-05T09:46:03.663Z,3.88
2023-03-05T09:47:03.510Z,3.88
2023-03-05T09:48:03.536Z,3.88
2023-03-05T09:49:03.674Z,3.88
2023-03-05T09:50:03.621Z,3.94
2023-03-05T09:51:03.677Z,3.94
2023-03-05T09:52:03.931Z,3.94
2023-03-05T09:53:03.821Z,4.00
2023-03-05T09:54:03.864Z,4.00
2023-03-05T09:55:03.921Z,4.00
2023-03-05T09:56:03.901Z,3.94
2023-03-05T09:57:04.000Z,3.94
2023-03-05T09:58:03.914Z,4.00
2023-03-05T09:59:04.079Z,4.00
2023-03-05T10:00:04.078Z,4.00
2023-03-05T10:01:04.089Z,4.06
2023-03-05T10:02:04.162Z,4.06
2023-03-05T10:03:04.276Z,4.06
2023-03-05T10:04:04.224Z,4.06
2023-03-05T10:05:04.326Z,4.06
2023-03-05T10:06:04.308Z,4.12
2023-03-05T10:07:04.307Z,4.12
2023-03-05T10:08:04.390Z,4.12
2023-03-05T10:09:03.511Z,4.19
2023-03-05T10:10:03.613Z,4.19
2023-03-05T10:11:03.602Z,4.19
2023-03-05T10:12:03.516Z,4.19
2023-03-05T10:13:03.556Z,4.25
2023-03-05T10:14:03.626Z,4.25
2023-03-05T10:15:03.688Z,4.25
2023-03-05T10:16:03.686Z,4.31
2023-03-05T10:17:03.590Z,4.31
2023-03-05T10:18:03.715Z,4.31
2023-03-05T10:19:03.602Z,4.31
2023-03-05T10:20:03.524Z,4.31
2023-03-05T10:21:03.691Z,4.38
2023-03-05T10:22:03.511Z,4.38
2023-03-05T10:23:03.758Z,4.38
2023-03-05T10:24:03.755Z,4.38
2023-03-05T10:25:03.844Z,4.44
2023-03-05T10:26:03.932Z,4.44
2023-03-05T10:27:04.035Z,4.50
2023-03-05T10:28:03.926Z,4.50
2023-03-05T10:29:03.908Z,4.50
2023-03-05T10:30:04.072Z,4.56
2023-03-05T10:31:04.014Z,4.56
2023-03-05T10:32:04.318Z,4.56
2023-03-05T10:33:04.277Z,4.56
2023-03-05T10:34:04.322Z,4.62
2023-03-05T10:35:04.315Z,4.62
2023-03-05T10:36:04.399Z,4.62
2023-03-05T10:37:03.679Z,4.69
2023-03-05T10:38:03.856Z,4.69
2023-03-05T10:39:03.921Z,4.69
2023-03-05T10:40:03.922Z,4.75
2023-03-05T10:41:03.933Z,4.81
2023-03-05T10:42:03.917Z,4.81
2023-03-05T10:43:03.840Z,4.88
2023-03-05T10:44:03.842Z,4.94
2023-03-05T10:45:03.929Z,4.94
2023-03-05T10:46:04.013Z,4.94
2023-03-05T10:47:04.092Z,5.00
2023-03-05T10:48:04.099Z,5.00
2023-03-05T10:49:04.157Z,5.00
2023-03-05T10:50:04.154Z,5.06
2023-03-05T10:51:04.150Z,5.06
2023-03-05T10:52:04.235Z,5.06
2023-03-05T10:53:04.231Z,5.12
2023-03-05T10:54:04.313Z,5.19
2023-03-05T10:55:04.311Z,5.25
2023-03-05T10:56:03.520Z,5.25
2023-03-05T10:57:03.528Z,5.31
2023-03-05T10:58:03.604Z,5.31
2023-03-05T10:59:03.670Z,5.38
2023-03-05T11:00:03.769Z,5.38
2023-03-05T11:01:03.885Z,5.44
2023-03-05T11:02:03.952Z,5.44
2023-03-05T11:03:04.009Z,5.44
2023-03-05T11:04:04.081Z,5.44
2023-03-05T11:05:05.227Z,5.50
2023-03-05T11:06:04.081Z,5.50
2023-03-05T11:07:04.065Z,5.50
2023-03-05T11:08:04.082Z,5.56
2023-03-05T11:09:04.167Z,5.56
2023-03-05T11:10:03.993Z,5.62
2023-03-05T11:11:04.218Z,5.62
2023-03-05T11:12:04.164Z,5.69
2023-03-05T11:13:04.167Z,5.69
2023-03-05T11:14:04.242Z,5.75
2023-03-05T11:15:04.266Z,5.75
2023-03-05T11:16:04.309Z,5.75
2023-03-05T11:17:04.388Z,5.81
2023-03-05T11:18:04.309Z,5.81
2023-03-05T11:19:04.392Z,5.88
2023-03-05T11:20:03.507Z,5.88
2023-03-05T11:21:03.616Z,5.94
2023-03-05T11:22:03.504Z,5.94
2023-03-05T11:23:03.592Z,6.00
2023-03-05T11:24:03.609Z,6.00
2023-03-05T11:25:03.586Z,6.00
2023-03-05T11:26:03.594Z,6.06
2023-03-05T11:27:03.754Z,6.06
2023-03-05T11:28:03.755Z,6.06
2023-03-05T11:29:03.751Z,6.12
2023-03-05T11:30:03.914Z,6.12
2023-03-05T11:31:03.939Z,6.12
2023-03-05T11:32:03.848Z,6.12
2023-03-05T11:33:03.831Z,6.12
2023-03-05T11:34:03.914Z,6.12
2023-03-05T11:35:03.823Z,6.12
2023-03-05T11:36:03.825Z,6.12
2023-03-05T11:37:03.896Z,6.12
2023-03-05T11:38:03.911Z,6.12
2023-03-05T11:39:03.991Z,6.12
2023-03-05T11:40:04.065Z,6.12
2023-03-05T11:41:04.311Z,6.12
2023-03-05T11:42:04.253Z,6.06
2023-03-05T11:43:04.231Z,6.06
2023-03-05T11:44:04.149Z,6.06
2023-03-05T11:45:04.319Z,6.06
2023-03-05T11:46:04.432Z,6.00
2023-03-05T11:47:04.386Z,6.00
2023-03-05T11:48:04.393Z,6.00
2023-03-05T11:49:04.429Z,5.94
2023-03-05T11:50:04.316Z,5.94
2023-03-05T11:51:04.393Z,5.94
2023-03-05T11:52:03.527Z,5.94
2023-03-05T11:53:03.511Z,5.88
2023-03-05T11:54:03.672Z,5.88
2023-03-05T11:55:03.527Z,5.88
2023-03-05T11:56:03.685Z,5.88
2023-03-05T11:57:03.760Z,5.81
2023-03-05T11:58:03.762Z,5.81
2023-03-05T11:59:03.839Z,5.81
2023-03-05T12:00:03.836Z,5.88
2023-03-05T12:01:03.832Z,5.81
2023-03-05T12:02:03.663Z,5.81
2023-03-05T12:03:03.997Z,5.81
2023-03-05T12:04:03.986Z,5.81
2023-03-05T12:05:03.923Z,5.81
2023-03-05T12:06:03.912Z,5.81
2023-03-05T12:07:03.922Z,5.81
2023-03-05T12:08:03.912Z,5.81
2023-03-05T12:09:04.082Z,5.81
2023-03-05T12:10:04.130Z,5.81
2023-03-05T12:11:04.023Z,5.75
2023-03-05T12:12:04.248Z,5.75
2023-03-05T12:13:04.172Z,5.75
2023-03-05T12:14:04.152Z,5.75
2023-03-05T12:15:04.088Z,5.75
2023-03-05T12:16:04.209Z,5.75
2023-03-05T12:17:04.151Z,5.75
2023-03-05T12:18:04.157Z,5.75
2023-03-05T12:19:04.315Z,5.75
2023-03-05T12:20:04.285Z,5.69
2023-03-05T12:21:04.234Z,5.69
2023-03-05T12:22:04.393Z,5.69
2023-03-05T12:23:04.477Z,5.69
2023-03-05T12:24:04.411Z,5.69
2023-03-05T12:25:04.479Z,5.69
2023-03-05T12:26:04.476Z,5.69
2023-03-05T12:27:04.641Z,5.69
2023-03-05T12:28:03.607Z,5.62
2023-03-05T12:29:03.510Z,5.62
2023-03-05T12:30:03.516Z,5.62
2023-03-05T12:31:03.548Z,5.62
2023-03-05T12:32:03.637Z,5.62
2023-03-05T12:33:03.687Z,5.62
2023-03-05T12:34:03.720Z,5.69
2023-03-05T12:35:03.598Z,5.69
2023-03-05T12:36:03.613Z,5.69
2023-03-05T12:37:03.597Z,5.69
2023-03-05T12:38:13.592Z,5.69
2023-03-05T12:39:03.589Z,5.69
2023-03-05T12:40:03.592Z,5.69
2023-03-05T12:41:03.610Z,5.62
2023-03-05T12:42:04.395Z,5.62
2023-03-05T12:43:03.530Z,5.62
2023-03-05T12:44:03.616Z,5.62
2023-03-05T12:45:04.078Z,5.56
2023-03-05T12:46:04.239Z,5.56
2023-03-05T12:47:04.372Z,5.56
2023-03-05T12:48:04.242Z,5.56
2023-03-05T12:49:04.403Z,5.56
2023-03-05T12:50:04.070Z,5.56
2023-03-05T12:51:04.242Z,5.56
2023-03-05T12:52:04.236Z,5.56
2023-03-05T12:53:04.340Z,5.56
2023-03-05T12:54:03.851Z,5.56
2023-03-05T12:55:03.758Z,5.56
2023-03-05T12:56:03.767Z,5.56
2023-03-05T12:57:03.782Z,5.62
2023-03-05T12:58:03.778Z,5.62
2023-03-05T12:59:03.679Z,5.56
2023-03-05T13:00:03.673Z,5.62
2023-03-05T13:01:03.855Z,5.56
2023-03-05T13:02:03.792Z,5.56
2023-03-05T13:03:03.761Z,5.56
2023-03-05T13:04:03.893Z,5.62
2023-03-05T13:05:04.003Z,5.62
2023-03-05T13:06:04.069Z,5.62
2023-03-05T13:07:04.128Z,5.62
2023-03-05T13:08:04.151Z,5.62
2023-03-05T13:09:04.307Z,5.62
2023-03-05T13:10:04.230Z,5.62
2023-03-05T13:11:04.313Z,5.62
2023-03-05T13:12:04.445Z,5.56
2023-03-05T13:13:04.522Z,5.56
2023-03-05T13:14:04.393Z,5.56
2023-03-05T13:15:04.402Z,5.56
2023-03-05T13:16:04.666Z,5.56
2023-03-05T13:17:04.564Z,5.56
2023-03-05T13:18:03.653Z,5.56